sensor_id;sensor_type;location;lat;lon;timestamp;pressure;altitude;pressure_sealevel;temperature;humidity
50854;BME280;44154;45.506;-122.806;2023-02-22T00:01:31;99448.59;;;24.51;35.13
50854;BME280;44154;45.506;-122.806;2023-02-22T00:04:02;99447.91;;;24.35;36.20
50854;BME280;44154;45.506;-122.806;2023-02-22T00:06:28;99435.75;;;24.17;37.22
50854;BME280;44154;45.506;-122.806;2023-02-22T00:08:56;99447.28;;;24.09;37.28
50854;BME280;44154;45.506;-122.806;2023-02-22T00:11:23;99432.56;;;24.00;37.36
50854;BME280;44154;45.506;-122.806;2023-02-22T00:13:49;99428.53;;;23.92;37.85
50854;BME280;44154;45.506;-122.806;2023-02-22T00:16:19;99426.41;;;23.79;37.09
50854;BME280;44154;45.506;-122.806;2023-02-22T00:18:46;99428.13;;;23.64;37.46
50854;BME280;44154;45.506;-122.806;2023-02-22T00:21:14;99427.34;;;23.59;37.34
50854;BME280;44154;45.506;-122.806;2023-02-22T00:23:42;99428.81;;;23.96;36.78
50854;BME280;44154;45.506;-122.806;2023-02-22T00:26:14;99422.09;;;24.47;35.99
50854;BME280;44154;45.506;-122.806;2023-02-22T00:28:45;99423.66;;;24.87;35.26
50854;BME280;44154;45.506;-122.806;2023-02-22T00:31:11;99413.81;;;24.86;35.44
50854;BME280;44154;45.506;-122.806;2023-02-22T00:33:39;99399.84;;;24.58;35.62
50854;BME280;44154;45.506;-122.806;2023-02-22T00:36:06;99398.66;;;24.40;36.20
50854;BME280;44154;45.506;-122.806;2023-02-22T00:38:32;99399.06;;;24.23;36.68
50854;BME280;44154;45.506;-122.806;2023-02-22T00:40:58;99398.09;;;24.09;37.04
50854;BME280;44154;45.506;-122.806;2023-02-22T00:43:24;99397.09;;;23.95;37.44
50854;BME280;44154;45.506;-122.806;2023-02-22T00:45:51;99393.28;;;23.85;37.59
50854;BME280;44154;45.506;-122.806;2023-02-22T00:48:18;99385.75;;;23.72;37.65
50854;BME280;44154;45.506;-122.806;2023-02-22T00:50:45;99388.53;;;23.67;37.53
50854;BME280;44154;45.506;-122.806;2023-02-22T00:53:14;99389.63;;;23.66;37.61
50854;BME280;44154;45.506;-122.806;2023-02-22T00:55:40;99388.13;;;23.89;37.15
50854;BME280;44154;45.506;-122.806;2023-02-22T00:58:07;99388.16;;;24.18;36.63
50854;BME280;44154;45.506;-122.806;2023-02-22T01:00:38;99379.22;;;24.42;35.94
50854;BME280;44154;45.506;-122.806;2023-02-22T01:03:07;99387.94;;;24.44;36.46
50854;BME280;44154;45.506;-122.806;2023-02-22T01:05:33;99365.72;;;24.21;36.60
50854;BME280;44154;45.506;-122.806;2023-02-22T01:08:00;99378.09;;;24.14;36.83
50854;BME280;44154;45.506;-122.806;2023-02-22T01:10:29;99380.13;;;23.98;37.30
50854;BME280;44154;45.506;-122.806;2023-02-22T01:12:56;99368.19;;;23.83;37.54
50854;BME280;44154;45.506;-122.806;2023-02-22T01:15:26;99374.00;;;23.71;37.50
50854;BME280;44154;45.506;-122.806;2023-02-22T01:17:56;99366.69;;;23.62;37.87
50854;BME280;44154;45.506;-122.806;2023-02-22T01:20:24;99374.66;;;23.53;37.62
50854;BME280;44154;45.506;-122.806;2023-02-22T01:22:52;99363.47;;;23.49;37.67
50854;BME280;44154;45.506;-122.806;2023-02-22T01:25:22;99366.69;;;23.67;37.32
50854;BME280;44154;45.506;-122.806;2023-02-22T01:27:49;99373.53;;;24.04;36.55
50854;BME280;44154;45.506;-122.806;2023-02-22T01:30:20;99368.59;;;24.35;35.97
50854;BME280;44154;45.506;-122.806;2023-02-22T01:32:46;99361.47;;;24.39;36.18
50854;BME280;44154;45.506;-122.806;2023-02-22T01:35:15;99362.66;;;24.28;36.33
50854;BME280;44154;45.506;-122.806;2023-02-22T01:37:43;99347.81;;;24.05;36.79
50854;BME280;44154;45.506;-122.806;2023-02-22T01:40:18;99360.72;;;23.99;37.20
50854;BME280;44154;45.506;-122.806;2023-02-22T01:42:48;99290.59;;;23.45;37.49
50854;BME280;44154;45.506;-122.806;2023-02-22T01:50:25;99356.06;;;23.55;38.04
50854;BME280;44154;45.506;-122.806;2023-02-22T01:52:52;99349.31;;;23.42;37.66
50854;BME280;44154;45.506;-122.806;2023-02-22T01:55:18;99345.91;;;23.66;37.48
50854;BME280;44154;45.506;-122.806;2023-02-22T01:57:45;99347.84;;;24.00;37.01
50854;BME280;44154;45.506;-122.806;2023-02-22T02:00:15;99348.13;;;24.33;36.31
50854;BME280;44154;45.506;-122.806;2023-02-22T02:02:55;99337.91;;;24.44;36.20
50854;BME280;44154;45.506;-122.806;2023-02-22T02:05:25;99347.47;;;24.46;36.64
50854;BME280;44154;45.506;-122.806;2023-02-22T02:07:52;99345.38;;;24.33;36.82
50854;BME280;44154;45.506;-122.806;2023-02-22T02:10:18;99352.63;;;24.18;37.13
50854;BME280;44154;45.506;-122.806;2023-02-22T02:12:48;99346.44;;;24.07;37.81
50854;BME280;44154;45.506;-122.806;2023-02-22T02:15:35;99345.13;;;24.00;38.17
50854;BME280;44154;45.506;-122.806;2023-02-22T02:18:04;99344.94;;;23.91;38.64
50854;BME280;44154;45.506;-122.806;2023-02-22T02:23:58;99352.38;;;23.80;38.74
50854;BME280;44154;45.506;-122.806;2023-02-22T02:34:58;99337.53;;;25.47;35.89
50854;BME280;44154;45.506;-122.806;2023-02-22T02:37:49;99346.50;;;25.28;36.44
50854;BME280;44154;45.506;-122.806;2023-02-22T02:48:27;99338.72;;;24.44;37.91
50854;BME280;44154;45.506;-122.806;2023-02-22T02:50:56;99338.81;;;24.34;38.20
50854;BME280;44154;45.506;-122.806;2023-02-22T02:53:32;99336.78;;;24.20;38.38
50854;BME280;44154;45.506;-122.806;2023-02-22T02:55:59;99340.59;;;24.19;38.04
50854;BME280;44154;45.506;-122.806;2023-02-22T02:58:26;99324.75;;;24.46;37.41
50854;BME280;44154;45.506;-122.806;2023-02-22T03:00:56;99330.13;;;25.04;36.60
50854;BME280;44154;45.506;-122.806;2023-02-22T03:06:14;99324.03;;;25.32;36.39
50854;BME280;44154;45.506;-122.806;2023-02-22T03:12:07;99300.41;;;24.73;37.38
50854;BME280;44154;45.506;-122.806;2023-02-22T03:14:54;99321.09;;;24.55;37.99
50854;BME280;44154;45.506;-122.806;2023-02-22T03:20:14;99299.84;;;24.23;38.40
50854;BME280;44154;45.506;-122.806;2023-02-22T03:22:53;99312.38;;;24.24;38.38
50854;BME280;44154;45.506;-122.806;2023-02-22T03:25:29;99303.16;;;24.44;37.90
50854;BME280;44154;45.506;-122.806;2023-02-22T03:28:05;99299.91;;;24.90;37.31
50854;BME280;44154;45.506;-122.806;2023-02-22T03:30:39;99303.09;;;25.41;36.31
50854;BME280;44154;45.506;-122.806;2023-02-22T03:33:18;99303.31;;;25.44;36.26
50854;BME280;44154;45.506;-122.806;2023-02-22T03:35:53;99291.81;;;25.23;36.46
50854;BME280;44154;45.506;-122.806;2023-02-22T03:38:23;99299.72;;;25.06;37.08
50854;BME280;44154;45.506;-122.806;2023-02-22T03:40:54;99282.56;;;24.76;37.47
50854;BME280;44154;45.506;-122.806;2023-02-22T03:43:45;99295.59;;;24.65;37.82
50854;BME280;44154;45.506;-122.806;2023-02-22T03:46:13;99298.69;;;24.53;37.99
50854;BME280;44154;45.506;-122.806;2023-02-22T03:51:51;99271.66;;;24.22;38.12
50854;BME280;44154;45.506;-122.806;2023-02-22T03:54:18;99295.66;;;24.31;38.07
50854;BME280;44154;45.506;-122.806;2023-02-22T03:57:07;99293.75;;;24.55;38.09
50854;BME280;44154;45.506;-122.806;2023-02-22T03:59:35;99285.25;;;24.81;37.30
50854;BME280;44154;45.506;-122.806;2023-02-22T04:02:02;99292.75;;;25.14;36.79
50854;BME280;44154;45.506;-122.806;2023-02-22T04:04:28;99276.34;;;25.14;36.79
50854;BME280;44154;45.506;-122.806;2023-02-22T04:06:54;99275.13;;;25.01;37.01
50854;BME280;44154;45.506;-122.806;2023-02-22T04:09:20;99278.69;;;24.82;37.29
50854;BME280;44154;45.506;-122.806;2023-02-22T04:11:46;99281.91;;;24.65;37.80
50854;BME280;44154;45.506;-122.806;2023-02-22T04:14:13;99275.19;;;24.52;37.78
50854;BME280;44154;45.506;-122.806;2023-02-22T04:16:39;99282.16;;;24.39;38.11
50854;BME280;44154;45.506;-122.806;2023-02-22T04:19:05;99286.91;;;24.29;38.55
50854;BME280;44154;45.506;-122.806;2023-02-22T04:21:31;99289.16;;;24.21;38.82
50854;BME280;44154;45.506;-122.806;2023-02-22T04:23:58;99288.09;;;24.47;37.97
50854;BME280;44154;45.506;-122.806;2023-02-22T04:26:24;99280.91;;;24.80;37.47
50854;BME280;44154;45.506;-122.806;2023-02-22T04:28:50;99279.66;;;25.10;36.53
50854;BME280;44154;45.506;-122.806;2023-02-22T04:31:17;99279.38;;;25.12;36.46
50854;BME280;44154;45.506;-122.806;2023-02-22T04:33:43;99272.41;;;25.01;36.86
50854;BME280;44154;45.506;-122.806;2023-02-22T04:36:09;99281.94;;;24.84;37.23
50854;BME280;44154;45.506;-122.806;2023-02-22T04:38:36;99272.06;;;24.64;37.69
50854;BME280;44154;45.506;-122.806;2023-02-22T04:41:02;99277.38;;;24.50;37.79
50854;BME280;44154;45.506;-122.806;2023-02-22T04:43:28;99273.16;;;24.39;38.21
50854;BME280;44154;45.506;-122.806;2023-02-22T04:45:54;99263.44;;;24.28;38.52
50854;BME280;44154;45.506;-122.806;2023-02-22T04:48:20;99262.13;;;24.20;38.32
50854;BME280;44154;45.506;-122.806;2023-02-22T04:50:50;99259.69;;;24.42;37.91
50854;BME280;44154;45.506;-122.806;2023-02-22T04:53:16;99242.88;;;24.79;37.62
50854;BME280;44154;45.506;-122.806;2023-02-22T04:55:43;99215.16;;;24.85;36.79
50854;BME280;44154;45.506;-122.806;2023-02-22T04:58:09;99245.13;;;25.15;36.19
50854;BME280;44154;45.506;-122.806;2023-02-22T05:00:35;99238.56;;;24.97;36.80
50854;BME280;44154;45.506;-122.806;2023-02-22T05:03:01;99247.16;;;24.85;37.06
50854;BME280;44154;45.506;-122.806;2023-02-22T05:05:27;99235.09;;;24.67;37.10
50854;BME280;44154;45.506;-122.806;2023-02-22T05:07:53;99234.66;;;24.54;37.75
50854;BME280;44154;45.506;-122.806;2023-02-22T05:10:19;99219.59;;;24.33;37.84
50854;BME280;44154;45.506;-122.806;2023-02-22T05:12:46;99220.78;;;24.27;38.01
50854;BME280;44154;45.506;-122.806;2023-02-22T05:15:18;99243.16;;;24.29;38.08
50854;BME280;44154;45.506;-122.806;2023-02-22T05:17:45;99234.22;;;24.23;37.72
50854;BME280;44154;45.506;-122.806;2023-02-22T05:20:37;99219.59;;;24.33;37.45
50854;BME280;44154;45.506;-122.806;2023-02-22T05:23:03;99243.72;;;24.98;36.78
50854;BME280;44154;45.506;-122.806;2023-02-22T05:25:30;99243.34;;;25.24;35.90
50854;BME280;44154;45.506;-122.806;2023-02-22T05:28:00;99238.75;;;25.19;36.03
50854;BME280;44154;45.506;-122.806;2023-02-22T05:30:33;99227.31;;;24.98;36.50
50854;BME280;44154;45.506;-122.806;2023-02-22T05:33:00;99227.00;;;24.81;36.87
50854;BME280;44154;45.506;-122.806;2023-02-22T05:35:27;99221.72;;;24.65;37.19
50854;BME280;44154;45.506;-122.806;2023-02-22T05:37:54;99220.25;;;24.49;37.33
50854;BME280;44154;45.506;-122.806;2023-02-22T05:40:23;99230.44;;;24.43;37.71
50854;BME280;44154;45.506;-122.806;2023-02-22T05:42:50;99206.66;;;24.19;37.68
50854;BME280;44154;45.506;-122.806;2023-02-22T05:46:14;99210.00;;;24.11;37.79
50854;BME280;44154;45.506;-122.806;2023-02-22T05:48:40;99222.16;;;24.48;37.68
50854;BME280;44154;45.506;-122.806;2023-02-22T05:51:06;99221.75;;;24.84;37.26
50854;BME280;44154;45.506;-122.806;2023-02-22T05:53:35;99221.44;;;25.05;36.24
50854;BME280;44154;45.506;-122.806;2023-02-22T05:56:03;99195.25;;;24.99;36.09
50854;BME280;44154;45.506;-122.806;2023-02-22T05:58:29;99222.03;;;25.02;36.26
50854;BME280;44154;45.506;-122.806;2023-02-22T06:00:55;99222.84;;;24.83;36.82
50854;BME280;44154;45.506;-122.806;2023-02-22T06:03:22;99203.47;;;24.55;36.92
50854;BME280;44154;45.506;-122.806;2023-02-22T06:05:48;99223.22;;;24.52;37.65
50854;BME280;44154;45.506;-122.806;2023-02-22T06:08:14;99227.69;;;24.43;37.61
50854;BME280;44154;45.506;-122.806;2023-02-22T06:10:40;99218.00;;;24.32;37.77
50854;BME280;44154;45.506;-122.806;2023-02-22T06:13:06;99211.91;;;24.16;37.65
50854;BME280;44154;45.506;-122.806;2023-02-22T06:15:32;99213.16;;;24.23;37.38
50854;BME280;44154;45.506;-122.806;2023-02-22T06:17:59;99222.47;;;24.71;37.01
50854;BME280;44154;45.506;-122.806;2023-02-22T06:20:27;99218.84;;;24.94;36.21
50854;BME280;44154;45.506;-122.806;2023-02-22T06:22:56;99220.41;;;25.20;35.56
50854;BME280;44154;45.506;-122.806;2023-02-22T06:25:28;99226.25;;;25.13;35.83
50854;BME280;44154;45.506;-122.806;2023-02-22T06:27:59;99208.44;;;24.97;36.52
50854;BME280;44154;45.506;-122.806;2023-02-22T06:30:26;99218.50;;;24.82;36.21
50854;BME280;44154;45.506;-122.806;2023-02-22T06:32:53;99209.31;;;24.73;36.86
50854;BME280;44154;45.506;-122.806;2023-02-22T06:35:19;99208.50;;;24.48;37.03
50854;BME280;44154;45.506;-122.806;2023-02-22T06:37:46;99220.25;;;24.49;36.98
50854;BME280;44154;45.506;-122.806;2023-02-22T06:40:13;99221.19;;;24.39;37.81
50854;BME280;44154;45.506;-122.806;2023-02-22T06:42:39;99219.69;;;24.28;38.01
50854;BME280;44154;45.506;-122.806;2023-02-22T06:45:06;99200.50;;;24.09;38.18
50854;BME280;44154;45.506;-122.806;2023-02-22T06:47:37;99194.53;;;24.25;40.70
50854;BME280;44154;45.506;-122.806;2023-02-22T06:50:03;99200.44;;;24.57;39.79
50854;BME280;44154;45.506;-122.806;2023-02-22T06:52:29;99215.66;;;24.87;38.74
50854;BME280;44154;45.506;-122.806;2023-02-22T06:54:56;99209.69;;;24.85;38.12
50854;BME280;44154;45.506;-122.806;2023-02-22T06:57:22;99172.81;;;24.58;37.62
50854;BME280;44154;45.506;-122.806;2023-02-22T06:59:48;99200.13;;;24.64;37.27
50854;BME280;44154;45.506;-122.806;2023-02-22T07:02:14;99209.19;;;24.59;37.34
50854;BME280;44154;45.506;-122.806;2023-02-22T07:04:40;99219.44;;;24.48;37.75
50854;BME280;44154;45.506;-122.806;2023-02-22T07:07:06;99216.53;;;24.39;38.00
50854;BME280;44154;45.506;-122.806;2023-02-22T07:09:32;99206.22;;;24.31;38.29
50854;BME280;44154;45.506;-122.806;2023-02-22T07:11:59;99193.50;;;24.21;38.42
50854;BME280;44154;45.506;-122.806;2023-02-22T07:14:25;99196.34;;;24.11;38.22
50854;BME280;44154;45.506;-122.806;2023-02-22T07:16:51;99209.50;;;24.09;37.84
50854;BME280;44154;45.506;-122.806;2023-02-22T07:19:17;99204.66;;;24.01;37.75
50854;BME280;44154;45.506;-122.806;2023-02-22T07:21:44;99197.38;;;23.91;37.97
50854;BME280;44154;45.506;-122.806;2023-02-22T07:24:12;99188.38;;;23.90;39.01
50854;BME280;44154;45.506;-122.806;2023-02-22T07:26:40;99177.22;;;23.82;38.46
50854;BME280;44154;45.506;-122.806;2023-02-22T07:29:06;99191.19;;;23.80;38.23
50854;BME280;44154;45.506;-122.806;2023-02-22T07:31:36;99201.56;;;23.78;38.12
50854;BME280;44154;45.506;-122.806;2023-02-22T07:34:03;99198.41;;;23.66;37.96
50854;BME280;44154;45.506;-122.806;2023-02-22T07:36:29;99200.66;;;23.59;37.91
50854;BME280;44154;45.506;-122.806;2023-02-22T07:38:55;99188.97;;;23.53;37.94
50854;BME280;44154;45.506;-122.806;2023-02-22T07:41:21;99180.63;;;23.39;37.60
50854;BME280;44154;45.506;-122.806;2023-02-22T07:43:47;99209.75;;;23.49;37.48
50854;BME280;44154;45.506;-122.806;2023-02-22T07:46:14;99205.97;;;23.45;37.27
50854;BME280;44154;45.506;-122.806;2023-02-22T07:48:40;99200.06;;;23.32;37.20
50854;BME280;44154;45.506;-122.806;2023-02-22T07:51:07;99201.97;;;23.32;37.25
50854;BME280;44154;45.506;-122.806;2023-02-22T07:53:34;99196.56;;;23.27;37.10
50854;BME280;44154;45.506;-122.806;2023-02-22T07:56:03;99193.88;;;23.21;38.00
50854;BME280;44154;45.506;-122.806;2023-02-22T07:58:31;99186.75;;;23.26;37.04
50854;BME280;44154;45.506;-122.806;2023-02-22T08:00:58;99181.56;;;23.24;37.13
50854;BME280;44154;45.506;-122.806;2023-02-22T08:03:26;99182.94;;;23.21;37.34
50854;BME280;44154;45.506;-122.806;2023-02-22T08:05:55;99168.53;;;23.16;37.75
50854;BME280;44154;45.506;-122.806;2023-02-22T08:08:22;99183.22;;;23.20;37.92
50854;BME280;44154;45.506;-122.806;2023-02-22T08:10:49;99177.25;;;23.18;37.92
50854;BME280;44154;45.506;-122.806;2023-02-22T08:13:16;99170.44;;;23.10;38.33
50854;BME280;44154;45.506;-122.806;2023-02-22T08:15:42;99181.09;;;23.12;38.35
50854;BME280;44154;45.506;-122.806;2023-02-22T08:18:11;99178.47;;;23.36;41.17
50854;BME280;44154;45.506;-122.806;2023-02-22T08:20:40;99156.25;;;23.77;40.10
50854;BME280;44154;45.506;-122.806;2023-02-22T08:23:07;99160.22;;;24.14;40.36
50854;BME280;44154;45.506;-122.806;2023-02-22T08:25:34;99160.34;;;24.04;37.60
50854;BME280;44154;45.506;-122.806;2023-02-22T08:28:05;99158.31;;;23.85;37.45
50854;BME280;44154;45.506;-122.806;2023-02-22T08:30:32;99156.59;;;23.70;37.61
50854;BME280;44154;45.506;-122.806;2023-02-22T08:33:03;99155.63;;;23.56;38.08
50854;BME280;44154;45.506;-122.806;2023-02-22T08:35:30;99139.97;;;23.37;37.97
50854;BME280;44154;45.506;-122.806;2023-02-22T08:37:59;99165.38;;;23.38;38.33
50854;BME280;44154;45.506;-122.806;2023-02-22T08:40:28;99163.25;;;23.30;38.57
50854;BME280;44154;45.506;-122.806;2023-02-22T08:42:55;99147.75;;;23.20;38.42
50854;BME280;44154;45.506;-122.806;2023-02-22T08:45:22;99151.56;;;23.19;38.63
50854;BME280;44154;45.506;-122.806;2023-02-22T08:47:48;99149.72;;;23.14;38.66
50854;BME280;44154;45.506;-122.806;2023-02-22T08:50:17;99155.19;;;23.09;38.94
50854;BME280;44154;45.506;-122.806;2023-02-22T08:52:43;99141.38;;;22.95;38.75
50854;BME280;44154;45.506;-122.806;2023-02-22T08:55:10;99136.47;;;22.92;38.66
50854;BME280;44154;45.506;-122.806;2023-02-22T08:57:36;99144.38;;;22.94;38.60
50854;BME280;44154;45.506;-122.806;2023-02-22T09:00:04;99143.16;;;23.15;39.33
50854;BME280;44154;45.506;-122.806;2023-02-22T09:02:30;99131.50;;;23.68;39.09
50854;BME280;44154;45.506;-122.806;2023-02-22T09:04:56;99130.16;;;24.14;38.34
50854;BME280;44154;45.506;-122.806;2023-02-22T09:07:22;99132.38;;;24.12;39.31
50854;BME280;44154;45.506;-122.806;2023-02-22T09:09:49;99134.25;;;23.93;39.77
50854;BME280;44154;45.506;-122.806;2023-02-22T09:12:15;99092.63;;;23.47;39.82
50854;BME280;44154;45.506;-122.806;2023-02-22T09:14:41;99120.16;;;23.51;38.91
50854;BME280;44154;45.506;-122.806;2023-02-22T09:17:08;99128.16;;;23.42;38.53
50854;BME280;44154;45.506;-122.806;2023-02-22T09:19:34;99130.47;;;23.30;38.35
50854;BME280;44154;45.506;-122.806;2023-02-22T09:22:00;99130.56;;;23.19;38.58
50854;BME280;44154;45.506;-122.806;2023-02-22T09:24:26;99128.44;;;23.11;38.40
50854;BME280;44154;45.506;-122.806;2023-02-22T09:26:52;99127.94;;;23.04;38.61
50854;BME280;44154;45.506;-122.806;2023-02-22T09:29:24;99119.53;;;22.95;38.17
50854;BME280;44154;45.506;-122.806;2023-02-22T09:31:52;99114.94;;;22.91;39.67
50854;BME280;44154;45.506;-122.806;2023-02-22T09:34:19;99118.25;;;22.88;39.98
50854;BME280;44154;45.506;-122.806;2023-02-22T09:36:48;99117.22;;;23.18;41.72
50854;BME280;44154;45.506;-122.806;2023-02-22T09:39:16;99108.97;;;23.52;40.08
50854;BME280;44154;45.506;-122.806;2023-02-22T09:47:19;99090.97;;;23.51;38.74
50854;BME280;44154;45.506;-122.806;2023-02-22T09:49:56;99085.75;;;23.26;39.73
50854;BME280;44154;45.506;-122.806;2023-02-22T09:52:28;99103.28;;;23.19;40.10
50854;BME280;44154;45.506;-122.806;2023-02-22T09:55:09;99095.19;;;23.04;39.81
50854;BME280;44154;45.506;-122.806;2023-02-22T09:57:42;99103.47;;;22.94;40.16
50854;BME280;44154;45.506;-122.806;2023-02-22T10:00:19;99081.75;;;22.78;40.81
50854;BME280;44154;45.506;-122.806;2023-02-22T10:05:43;99081.00;;;23.36;40.69
50854;BME280;44154;45.506;-122.806;2023-02-22T10:08:16;99066.84;;;23.59;39.65
50854;BME280;44154;45.506;-122.806;2023-02-22T10:10:53;99074.13;;;23.68;39.57
50854;BME280;44154;45.506;-122.806;2023-02-22T10:27:18;99070.25;;;22.81;40.55
50854;BME280;44154;45.506;-122.806;2023-02-22T10:29:59;99066.19;;;23.13;40.81
50854;BME280;44154;45.506;-122.806;2023-02-22T10:32:34;99067.56;;;23.45;40.26
50854;BME280;44154;45.506;-122.806;2023-02-22T10:35:15;99055.22;;;23.72;39.05
50854;BME280;44154;45.506;-122.806;2023-02-22T10:37:43;99058.03;;;23.67;39.29
50854;BME280;44154;45.506;-122.806;2023-02-22T10:40:18;99057.66;;;23.49;39.22
50854;BME280;44154;45.506;-122.806;2023-02-22T10:42:51;99058.94;;;23.33;39.62
50854;BME280;44154;45.506;-122.806;2023-02-22T10:45:24;99055.25;;;23.18;39.90
50854;BME280;44154;45.506;-122.806;2023-02-22T10:47:54;99046.06;;;23.04;39.57
50854;BME280;44154;45.506;-122.806;2023-02-22T10:50:27;99049.97;;;22.93;39.94
50854;BME280;44154;45.506;-122.806;2023-02-22T10:52:56;99048.44;;;22.81;40.18
50854;BME280;44154;45.506;-122.806;2023-02-22T10:55:22;99026.03;;;22.84;41.28
50854;BME280;44154;45.506;-122.806;2023-02-22T10:57:50;99043.16;;;23.25;40.87
50854;BME280;44154;45.506;-122.806;2023-02-22T11:00:28;99029.72;;;23.58;39.22
50854;BME280;44154;45.506;-122.806;2023-02-22T11:05:31;99003.25;;;23.34;39.44
50854;BME280;44154;45.506;-122.806;2023-02-22T11:10:53;99014.63;;;23.12;39.51
50854;BME280;44154;45.506;-122.806;2023-02-22T11:15:57;99030.84;;;22.98;40.11
50854;BME280;44154;45.506;-122.806;2023-02-22T11:18:27;99009.47;;;22.76;40.09
50854;BME280;44154;45.506;-122.806;2023-02-22T11:21:08;99033.63;;;22.93;41.30
50854;BME280;44154;45.506;-122.806;2023-02-22T11:23:37;99023.56;;;23.23;40.80
50854;BME280;44154;45.506;-122.806;2023-02-22T11:26:13;99009.56;;;23.53;39.13
50854;BME280;44154;45.506;-122.806;2023-02-22T11:28:43;99012.13;;;23.69;38.74
50854;BME280;44154;45.506;-122.806;2023-02-22T11:31:27;99021.53;;;23.58;38.79
50854;BME280;44154;45.506;-122.806;2023-02-22T11:33:59;99009.22;;;23.36;39.21
50854;BME280;44154;45.506;-122.806;2023-02-22T11:36:41;99015.66;;;23.21;39.69
50854;BME280;44154;45.506;-122.806;2023-02-22T11:39:27;99020.41;;;23.05;39.60
50854;BME280;44154;45.506;-122.806;2023-02-22T11:41:57;98997.97;;;22.84;40.18
50854;BME280;44154;45.506;-122.806;2023-02-22T11:44:29;99022.22;;;22.85;40.18
50854;BME280;44154;45.506;-122.806;2023-02-22T11:46:57;99015.88;;;22.95;40.84
50854;BME280;44154;45.506;-122.806;2023-02-22T11:49:36;99017.00;;;23.24;39.99
50854;BME280;44154;45.506;-122.806;2023-02-22T12:14:20;99030.28;;;23.01;40.85
50854;BME280;44154;45.506;-122.806;2023-02-22T12:17:23;99018.78;;;23.33;39.33
50854;BME280;44154;45.506;-122.806;2023-02-22T12:20:01;99022.53;;;23.67;38.34
50854;BME280;44154;45.506;-122.806;2023-02-22T12:22:34;99024.22;;;23.63;38.32
50854;BME280;44154;45.506;-122.806;2023-02-22T12:25:22;99028.75;;;23.48;38.64
50854;BME280;44154;45.506;-122.806;2023-02-22T12:27:56;99014.81;;;23.20;38.88
50854;BME280;44154;45.506;-122.806;2023-02-22T12:30:29;99018.19;;;23.07;39.25
50854;BME280;44154;45.506;-122.806;2023-02-22T12:33:02;99026.50;;;22.97;39.46
50854;BME280;44154;45.506;-122.806;2023-02-22T12:35:35;99029.31;;;22.86;39.67
50854;BME280;44154;45.506;-122.806;2023-02-22T12:41:05;99027.00;;;22.99;40.80
50854;BME280;44154;45.506;-122.806;2023-02-22T12:46:26;99030.31;;;23.54;38.80
50854;BME280;44154;45.506;-122.806;2023-02-22T12:49:16;99028.63;;;23.59;38.36
50854;BME280;44154;45.506;-122.806;2023-02-22T12:55:34;99035.28;;;23.23;39.07
50854;BME280;44154;45.506;-122.806;2023-02-22T12:58:17;99030.22;;;23.06;39.22
50854;BME280;44154;45.506;-122.806;2023-02-22T13:01:19;99021.66;;;22.89;39.46
50854;BME280;44154;45.506;-122.806;2023-02-22T13:03:46;99023.38;;;22.79;39.65
50854;BME280;44154;45.506;-122.806;2023-02-22T13:09:17;99020.34;;;23.15;40.20
50854;BME280;44154;45.506;-122.806;2023-02-22T13:11:53;99020.00;;;23.46;39.15
50854;BME280;44154;45.506;-122.806;2023-02-22T13:14:39;99024.72;;;23.65;38.26
50854;BME280;44154;45.506;-122.806;2023-02-22T13:20:22;99026.13;;;23.38;38.50
50854;BME280;44154;45.506;-122.806;2023-02-22T13:28:38;99028.75;;;22.90;39.17
50854;BME280;44154;45.506;-122.806;2023-02-22T13:37:34;99028.19;;;23.46;39.22
50854;BME280;44154;45.506;-122.806;2023-02-22T13:43:26;99026.97;;;24.06;37.40
50854;BME280;44154;45.506;-122.806;2023-02-22T13:46:20;99019.66;;;24.01;37.38
50854;BME280;44154;45.506;-122.806;2023-02-22T13:51:49;99019.56;;;23.63;37.95
50854;BME280;44154;45.506;-122.806;2023-02-22T13:56:50;99023.19;;;23.29;38.46
50854;BME280;44154;45.506;-122.806;2023-02-22T14:01:49;98974.47;;;23.17;39.08
50854;BME280;44154;45.506;-122.806;2023-02-22T14:07:04;99019.94;;;24.00;37.75
50854;BME280;44154;45.506;-122.806;2023-02-22T14:09:51;99013.50;;;23.90;37.58
50854;BME280;44154;45.506;-122.806;2023-02-22T14:17:43;99026.28;;;23.71;38.61
50854;BME280;44154;45.506;-122.806;2023-02-22T14:22:43;99024.16;;;24.11;37.96
50854;BME280;44154;45.506;-122.806;2023-02-22T14:25:32;99022.91;;;24.41;36.79
50854;BME280;44154;45.506;-122.806;2023-02-22T14:27:59;99026.22;;;24.57;36.43
50854;BME280;44154;45.506;-122.806;2023-02-22T14:30:30;99023.56;;;24.52;36.12
50854;BME280;44154;45.506;-122.806;2023-02-22T14:32:58;99023.00;;;24.36;36.52
50854;BME280;44154;45.506;-122.806;2023-02-22T14:35:35;99023.00;;;24.17;36.68
50854;BME280;44154;45.506;-122.806;2023-02-22T14:38:09;99024.31;;;24.01;36.76
50854;BME280;44154;45.506;-122.806;2023-02-22T14:40:39;99022.31;;;23.82;37.13
50854;BME280;44154;45.506;-122.806;2023-02-22T14:43:11;99030.00;;;24.04;36.90
50854;BME280;44154;45.506;-122.806;2023-02-22T14:45:59;99031.41;;;24.21;36.42
50854;BME280;44154;45.506;-122.806;2023-02-22T14:48:36;99026.84;;;24.16;36.30
50854;BME280;44154;45.506;-122.806;2023-02-22T14:51:14;99037.06;;;24.05;36.33
50854;BME280;44154;45.506;-122.806;2023-02-22T14:53:56;99038.59;;;23.93;36.60
50854;BME280;44154;45.506;-122.806;2023-02-22T14:56:28;99041.97;;;23.84;36.85
50854;BME280;44154;45.506;-122.806;2023-02-22T15:01:34;99042.41;;;23.72;37.24
50854;BME280;44154;45.506;-122.806;2023-02-22T15:04:21;99042.03;;;23.79;37.27
50854;BME280;44154;45.506;-122.806;2023-02-22T15:06:49;99049.34;;;24.27;36.42
50854;BME280;44154;45.506;-122.806;2023-02-22T15:09:21;99046.91;;;24.83;35.37